createdAt,value
2023-08-08T00:02:10.758Z,2.92
2023-08-08T00:04:37.340Z,1.38
2023-08-08T00:07:03.849Z,0.92
2023-08-08T00:09:30.430Z,0.85
2023-08-08T00:11:57.216Z,1.02
2023-08-08T00:14:24.038Z,0.90
2023-08-08T00:16:50.563Z,0.79
2023-08-08T00:19:17.190Z,0.82
2023-08-08T00:21:43.721Z,0.80
2023-08-08T00:24:10.214Z,0.93
2023-08-08T00:26:36.693Z,0.80
2023-08-08T00:29:03.172Z,0.81
2023-08-08T00:31:29.781Z,1.06
2023-08-08T00:33:56.544Z,1.27
2023-08-08T00:36:23.188Z,1.47
2023-08-08T00:38:49.730Z,1.63
2023-08-08T00:41:16.348Z,1.08
2023-08-08T00:43:42.853Z,1.18
2023-08-08T00:46:09.419Z,1.21
2023-08-08T00:48:35.944Z,1.27
2023-08-08T00:51:02.460Z,1.16
2023-08-08T00:53:28.942Z,1.18
2023-08-08T00:55:55.442Z,0.99
2023-08-08T00:58:21.987Z,0.89
2023-08-08T01:00:48.557Z,0.87
2023-08-08T01:03:17.720Z,0.88
2023-08-08T01:05:44.324Z,0.90
2023-08-08T01:08:10.889Z,1.05
2023-08-08T01:10:37.531Z,1.11
2023-08-08T01:13:04.091Z,0.89
2023-08-08T01:15:30.618Z,0.85
2023-08-08T01:17:57.240Z,0.95
2023-08-08T01:20:23.787Z,1.01
2023-08-08T01:22:50.343Z,1.10
2023-08-08T01:25:25.821Z,1.01
2023-08-08T01:27:52.363Z,0.81
2023-08-08T01:30:18.912Z,0.91
2023-08-08T01:32:45.470Z,0.89
2023-08-08T01:35:12.000Z,0.82
2023-08-08T01:37:38.520Z,1.10
2023-08-08T01:40:05.104Z,0.91
2023-08-08T01:42:31.657Z,0.91
2023-08-08T01:47:48.430Z,0.88
2023-08-08T01:50:15.005Z,0.99
2023-08-08T01:52:41.509Z,1.01
2023-08-08T01:55:08.116Z,0.85
2023-08-08T02:00:14.949Z,0.92
2023-08-08T02:02:41.772Z,0.84
2023-08-08T02:05:08.425Z,0.80
2023-08-08T02:07:34.963Z,0.91
2023-08-08T02:10:01.577Z,0.80
2023-08-08T02:12:28.123Z,0.91
2023-08-08T02:14:54.634Z,0.89
2023-08-08T02:17:21.184Z,0.91
2023-08-08T02:22:38.207Z,0.88
2023-08-08T02:25:04.756Z,0.87
2023-08-08T02:27:31.399Z,0.73
2023-08-08T02:29:57.932Z,0.98
2023-08-08T02:32:24.461Z,0.80
2023-08-08T02:34:50.998Z,0.82
2023-08-08T02:37:17.471Z,1.08
2023-08-08T02:39:43.978Z,1.07
2023-08-08T02:42:10.451Z,0.90
2023-08-08T02:44:37.031Z,0.85
2023-08-08T02:47:03.589Z,0.99
2023-08-08T02:49:30.142Z,0.93
2023-08-08T02:51:57.023Z,1.03
2023-08-08T02:54:23.968Z,1.06
2023-08-08T02:56:50.512Z,1.02
2023-08-08T02:59:17.161Z,0.96
2023-08-08T03:01:43.742Z,0.90
2023-08-08T03:04:10.269Z,1.14
2023-08-08T03:06:36.794Z,0.89
2023-08-08T03:09:05.664Z,0.89
2023-08-08T03:11:32.226Z,0.97
2023-08-08T03:13:58.742Z,0.95
2023-08-08T03:16:25.293Z,1.06
2023-08-08T03:18:51.898Z,0.95
2023-08-08T03:21:18.578Z,0.87
2023-08-08T03:23:45.184Z,1.01
2023-08-08T03:26:11.750Z,1.14
2023-08-08T03:28:38.459Z,1.45
2023-08-08T03:31:04.971Z,1.40
2023-08-08T03:33:31.505Z,1.38
2023-08-08T03:35:58.159Z,1.26
2023-08-08T03:38:24.620Z,1.33
2023-08-08T03:40:51.129Z,1.39
2023-08-08T03:43:17.778Z,1.16
2023-08-08T03:48:35.206Z,1.07
2023-08-08T03:51:01.957Z,1.53
2023-08-08T03:53:29.893Z,1.46
2023-08-08T03:55:56.461Z,1.46
2023-08-08T03:58:35.431Z,1.29
2023-08-08T04:01:19.068Z,1.07
2023-08-08T04:03:45.658Z,1.33
2023-08-08T04:06:12.210Z,1.22
2023-08-08T04:08:38.744Z,0.95
2023-08-08T04:11:05.371Z,0.98
2023-08-08T04:13:31.901Z,0.95
2023-08-08T04:15:58.377Z,0.94
2023-08-08T04:18:34.505Z,1.02
2023-08-08T04:21:02.337Z,0.96
2023-08-08T04:23:28.924Z,0.90
2023-08-08T04:25:55.432Z,0.94
2023-08-08T04:28:21.995Z,0.82
2023-08-08T04:30:48.530Z,1.11
2023-08-08T04:33:15.152Z,1.02
2023-08-08T04:35:41.968Z,0.99
2023-08-08T04:38:11.628Z,0.96
2023-08-08T04:40:39.405Z,1.12
2023-08-08T04:43:06.264Z,1.14
2023-08-08T04:45:32.865Z,0.99
2023-08-08T04:47:59.448Z,0.99
2023-08-08T04:50:26.025Z,1.07
2023-08-08T04:52:52.555Z,1.01
2023-08-08T04:55:19.124Z,0.95
2023-08-08T04:57:45.689Z,1.14
2023-08-08T05:00:12.275Z,1.12
2023-08-08T05:02:38.839Z,1.22
2023-08-08T05:05:05.445Z,1.22
2023-08-08T05:07:31.982Z,1.23
2023-08-08T05:09:58.513Z,1.17
2023-08-08T05:12:26.227Z,1.21
2023-08-08T05:14:52.828Z,1.18
2023-08-08T05:17:19.394Z,1.14
2023-08-08T05:19:46.325Z,1.16
2023-08-08T05:22:13.866Z,1.12
2023-08-08T05:24:40.426Z,1.25
2023-08-08T05:27:07.047Z,1.19
2023-08-08T05:29:33.571Z,1.22
2023-08-08T05:32:01.161Z,1.10
2023-08-08T05:34:27.987Z,1.20
2023-08-08T05:37:10.258Z,1.15
2023-08-08T05:39:43.159Z,1.22
2023-08-08T05:42:09.716Z,1.43
2023-08-08T05:44:36.305Z,1.26
2023-08-08T05:47:02.874Z,1.06
2023-08-08T05:49:29.403Z,1.13
2023-08-08T05:52:11.016Z,1.13
2023-08-08T05:54:38.151Z,1.12
2023-08-08T05:57:04.693Z,1.25
2023-08-08T05:59:31.336Z,1.13
2023-08-08T06:01:57.910Z,1.19
2023-08-08T06:04:24.549Z,1.18
2023-08-08T06:06:51.070Z,1.09
2023-08-08T06:09:17.663Z,1.36
2023-08-08T06:11:46.813Z,1.25
2023-08-08T06:14:13.414Z,1.13
2023-08-08T06:16:40.079Z,1.11
2023-08-08T06:21:47.053Z,1.23
2023-08-08T06:24:13.650Z,1.16
2023-08-08T06:26:40.330Z,1.19
2023-08-08T06:29:06.886Z,1.21
2023-08-08T06:31:33.460Z,1.30
2023-08-08T06:33:59.964Z,1.33
2023-08-08T06:36:26.635Z,1.22
2023-08-08T06:38:53.223Z,1.17
2023-08-08T06:41:19.779Z,1.31
2023-08-08T06:43:46.301Z,1.36
2023-08-08T06:46:15.454Z,1.50
2023-08-08T06:51:22.321Z,1.46
2023-08-08T06:53:48.780Z,1.36
2023-08-08T06:56:15.285Z,1.58
2023-08-08T06:58:44.694Z,1.26
2023-08-08T07:01:11.227Z,1.31
2023-08-08T07:03:37.850Z,1.21
2023-08-08T07:06:04.400Z,1.63
2023-08-08T07:11:15.833Z,1.94
2023-08-08T07:13:42.531Z,1.38
2023-08-08T07:16:09.179Z,1.28
2023-08-08T07:18:35.708Z,1.33
2023-08-08T07:21:02.200Z,1.35
2023-08-08T07:23:28.747Z,1.60
2023-08-08T07:25:55.198Z,2.12
2023-08-08T07:28:21.834Z,1.39
2023-08-08T07:30:48.338Z,1.09
2023-08-08T07:33:14.959Z,1.59
2023-08-08T07:35:41.532Z,5.01
2023-08-08T07:38:10.228Z,1.53
2023-08-08T07:40:36.872Z,1.32
2023-08-08T07:43:03.420Z,1.06
2023-08-08T07:45:29.983Z,1.24
2023-08-08T07:47:58.551Z,1.14
2023-08-08T07:50:25.192Z,1.16
2023-08-08T07:52:51.730Z,1.07
2023-08-08T07:55:18.370Z,1.19
2023-08-08T07:57:44.887Z,1.23
2023-08-08T08:00:11.380Z,1.18
2023-08-08T08:02:37.957Z,1.50
2023-08-08T08:05:04.500Z,1.05
2023-08-08T08:07:33.705Z,1.22
2023-08-08T08:10:00.241Z,1.27
2023-08-08T08:12:32.583Z,1.19
2023-08-08T08:14:59.085Z,1.11
2023-08-08T08:17:25.605Z,1.05
2023-08-08T08:19:52.115Z,1.09
2023-08-08T08:22:18.654Z,1.13
2023-08-08T08:24:45.122Z,1.27
2023-08-08T08:27:12.932Z,1.18
2023-08-08T08:29:39.383Z,1.24
2023-08-08T08:32:08.708Z,1.13
2023-08-08T08:34:35.269Z,1.27
2023-08-08T08:37:01.798Z,1.26
2023-08-08T08:39:30.393Z,1.26
2023-08-08T08:41:56.896Z,1.29
2023-08-08T08:44:23.318Z,1.23
2023-08-08T08:46:58.882Z,1.31
2023-08-08T08:49:25.361Z,1.23
2023-08-08T08:51:51.849Z,1.39
2023-08-08T08:54:19.641Z,1.21
2023-08-08T08:56:46.393Z,1.44
2023-08-08T08:59:12.836Z,1.25
2023-08-08T09:01:39.364Z,1.16
2023-08-08T09:04:07.092Z,1.22
2023-08-08T09:06:33.587Z,1.54
2023-08-08T09:09:07.235Z,1.32
2023-08-08T09:11:42.585Z,1.10
2023-08-08T09:14:09.120Z,1.16
2023-08-08T09:16:35.671Z,1.28
2023-08-08T09:19:02.299Z,1.39
2023-08-08T09:21:37.657Z,1.27
2023-08-08T09:24:04.175Z,1.37
2023-08-08T09:26:30.737Z,1.28
2023-08-08T09:28:57.287Z,1.32
2023-08-08T09:31:23.828Z,1.43
2023-08-08T09:33:54.905Z,1.23
2023-08-08T09:36:24.109Z,1.26
2023-08-08T09:38:58.287Z,1.20
2023-08-08T09:41:26.081Z,1.18
2023-08-08T09:43:52.599Z,1.28
2023-08-08T09:46:19.162Z,1.19
2023-08-08T09:48:45.702Z,1.24
2023-08-08T09:51:12.307Z,1.27
2023-08-08T09:53:40.358Z,1.12
2023-08-08T09:56:06.887Z,1.30
2023-08-08T09:58:33.410Z,1.26
2023-08-08T10:00:59.932Z,1.26
2023-08-08T10:03:26.588Z,1.27
2023-08-08T10:05:54.599Z,1.32
2023-08-08T10:08:21.089Z,1.30
2023-08-08T10:10:58.811Z,1.22
2023-08-08T10:13:25.323Z,1.28
2023-08-08T10:15:51.812Z,1.45
2023-08-08T10:18:18.358Z,1.24
2023-08-08T10:20:44.955Z,1.28
2023-08-08T10:23:11.470Z,1.18
2023-08-08T10:25:38.004Z,1.30
2023-08-08T10:28:15.599Z,1.36
2023-08-08T10:30:51.061Z,1.23
2023-08-08T10:33:17.623Z,1.25
2023-08-08T10:35:44.146Z,1.32
2023-08-08T10:38:10.661Z,1.29
2023-08-08T10:40:37.221Z,1.29
2023-08-08T10:43:03.684Z,1.25
2023-08-08T10:45:30.181Z,1.29
2023-08-08T10:47:58.665Z,1.22
2023-08-08T10:50:25.193Z,1.47
2023-08-08T10:52:51.695Z,1.13
2023-08-08T10:55:18.159Z,1.27
2023-08-08T10:57:44.690Z,1.42
2023-08-08T11:02:51.688Z,1.29
2023-08-08T11:05:18.243Z,1.36
2023-08-08T11:07:44.826Z,1.38
2023-08-08T11:10:11.392Z,1.41
2023-08-08T11:12:37.884Z,1.46
2023-08-08T11:15:10.549Z,1.45
2023-08-08T11:17:37.131Z,1.31
2023-08-08T11:20:03.682Z,1.36
2023-08-08T11:22:30.242Z,1.36
2023-08-08T11:24:57.969Z,1.31
2023-08-08T11:29:54.498Z,1.33
2023-08-08T11:32:20.992Z,1.25
2023-08-08T11:34:47.521Z,1.27
2023-08-08T11:37:14.043Z,1.36
2023-08-08T11:39:40.566Z,1.48
2023-08-08T11:42:09.565Z,1.32
2023-08-08T11:44:36.000Z,1.38
2023-08-08T11:47:03.316Z,1.52
2023-08-08T11:49:30.864Z,1.46
2023-08-08T11:51:57.398Z,1.40
2023-08-08T11:54:23.902Z,1.28
2023-08-08T11:56:50.420Z,1.40
2023-08-08T11:59:16.958Z,1.55
2023-08-08T12:01:43.695Z,1.39
2023-08-08T12:04:20.450Z,1.21
2023-08-08T12:06:47.043Z,1.38
2023-08-08T12:09:13.600Z,1.55
2023-08-08T12:11:40.082Z,1.28
2023-08-08T12:14:06.540Z,1.36
2023-08-08T12:16:34.030Z,1.32
2023-08-08T12:19:01.040Z,1.34
2023-08-08T12:21:27.705Z,1.30
2023-08-08T12:23:54.309Z,1.34
2023-08-08T12:26:22.102Z,1.34
2023-08-08T12:28:48.560Z,1.36
2023-08-08T12:31:15.148Z,1.31
2023-08-08T12:33:41.673Z,1.45
2023-08-08T12:36:08.192Z,1.35
2023-08-08T12:38:34.698Z,1.23
2023-08-08T12:41:01.208Z,1.31
2023-08-08T12:43:27.676Z,1.32
2023-08-08T12:45:54.230Z,1.36
2023-08-08T12:48:21.423Z,1.43
2023-08-08T12:50:50.473Z,1.57
2023-08-08T12:53:17.043Z,1.53
2023-08-08T12:55:43.555Z,1.45
2023-08-08T12:58:10.083Z,1.51
2023-08-08T13:00:36.635Z,1.26
2023-08-08T13:03:10.671Z,1.36
2023-08-08T13:05:37.428Z,1.34
2023-08-08T13:08:04.057Z,1.28
2023-08-08T13:10:35.233Z,1.60
2023-08-08T13:13:01.770Z,1.72
2023-08-08T13:15:28.333Z,1.48
2023-08-08T13:17:54.874Z,1.61
2023-08-08T13:23:02.696Z,1.39
2023-08-08T13:25:29.303Z,1.32
2023-08-08T13:27:55.824Z,1.35
2023-08-08T13:30:22.345Z,1.20
2023-08-08T13:32:48.927Z,1.23
2023-08-08T13:35:15.423Z,1.20
2023-08-08T13:37:41.931Z,1.09
2023-08-08T13:40:08.385Z,1.10
2023-08-08T13:42:34.867Z,1.16
2023-08-08T13:45:01.380Z,1.19
2023-08-08T13:47:27.959Z,1.08
2023-08-08T13:49:59.498Z,1.14
2023-08-08T13:52:26.257Z,1.16
2023-08-08T13:54:52.767Z,0.99
2023-08-08T13:57:19.283Z,0.94
2023-08-08T14:02:26.218Z,0.99
2023-08-08T14:04:52.786Z,1.01
2023-08-08T14:07:19.303Z,0.96
2023-08-08T14:09:45.824Z,1.05
2023-08-08T14:12:12.292Z,1.01
2023-08-08T14:14:38.802Z,1.12
2023-08-08T14:17:06.306Z,1.06
2023-08-08T14:19:33.037Z,1.07
2023-08-08T14:22:00.856Z,0.99
2023-08-08T14:24:28.847Z,0.99
2023-08-08T14:26:55.409Z,0.86
2023-08-08T14:29:21.904Z,1.07
2023-08-08T14:31:58.836Z,1.03
2023-08-08T14:34:26.795Z,1.00
2023-08-08T14:36:53.298Z,0.84
2023-08-08T14:39:19.815Z,1.04
2023-08-08T14:41:53.997Z,1.01
2023-08-08T14:44:24.286Z,0.92
2023-08-08T14:46:50.782Z,0.91
2023-08-08T14:49:17.381Z,0.88
2023-08-08T14:51:43.875Z,0.84
2023-08-08T14:54:10.330Z,0.86
2023-08-08T14:56:36.930Z,0.89
2023-08-08T14:59:06.206Z,0.91
2023-08-08T15:01:38.700Z,0.84
2023-08-08T15:06:56.485Z,0.80
2023-08-08T15:09:22.993Z,0.88
2023-08-08T15:11:49.522Z,0.94
2023-08-08T15:14:16.063Z,0.94
2023-08-08T15:16:42.593Z,0.94
2023-08-08T15:19:09.029Z,0.89
2023-08-08T15:21:35.545Z,0.86
2023-08-08T15:24:02.013Z,0.81
2023-08-08T15:26:28.423Z,0.90
2023-08-08T15:28:56.463Z,0.96
2023-08-08T15:34:03.527Z,0.88
2023-08-08T15:36:30.007Z,0.82
2023-08-08T15:38:59.228Z,0.90
2023-08-08T15:41:25.660Z,1.01
2023-08-08T15:43:52.086Z,0.96
2023-08-08T15:46:18.595Z,0.95
2023-08-08T15:48:45.041Z,0.95
2023-08-08T15:51:11.518Z,1.02
2023-08-08T15:53:38.022Z,0.93
2023-08-08T15:56:11.834Z,1.05
2023-08-08T15:58:38.400Z,1.29
2023-08-08T16:01:14.166Z,1.33
2023-08-08T16:03:40.793Z,1.06
2023-08-08T16:06:08.149Z,1.00
2023-08-08T16:08:34.689Z,0.94
2023-08-08T16:13:51.168Z,0.92
2023-08-08T16:16:17.675Z,1.02
2023-08-08T16:18:44.215Z,1.15
2023-08-08T16:21:10.672Z,1.05
2023-08-08T16:23:37.268Z,0.95
2023-08-08T16:26:03.786Z,1.07
2023-08-08T16:28:30.417Z,0.91
2023-08-08T16:30:56.969Z,0.88
2023-08-08T16:33:23.485Z,0.91
2023-08-08T16:35:49.998Z,0.86
2023-08-08T16:38:16.470Z,1.04
2023-08-08T16:40:43.015Z,0.93
2023-08-08T16:43:09.420Z,0.90
2023-08-08T16:45:35.848Z,1.82
2023-08-08T16:48:02.294Z,2.34
2023-08-08T16:50:32.104Z,1.20
2023-08-08T16:55:42.500Z,0.97
2023-08-08T16:58:09.042Z,1.15
2023-08-08T17:00:35.716Z,0.92
2023-08-08T17:03:02.222Z,1.04
2023-08-08T17:05:28.764Z,1.10
2023-08-08T17:07:57.713Z,1.21
2023-08-08T17:10:24.295Z,1.50
2023-08-08T17:12:50.801Z,1.09
2023-08-08T17:15:19.124Z,1.04
2023-08-08T17:17:45.650Z,1.08
2023-08-08T17:20:12.266Z,1.11
2023-08-08T17:22:38.796Z,1.13
2023-08-08T17:25:05.360Z,1.03
2023-08-08T17:27:31.868Z,1.00
2023-08-08T17:29:58.387Z,0.92
2023-08-08T17:32:25.042Z,0.99
2023-08-08T17:34:57.489Z,0.98
2023-08-08T17:37:24.033Z,1.07
2023-08-08T17:39:50.601Z,1.16
2023-08-08T17:42:17.103Z,1.10
2023-08-08T17:44:43.562Z,1.08
2023-08-08T17:47:10.035Z,0.93
2023-08-08T17:49:36.507Z,1.02
2023-08-08T17:52:03.463Z,1.05
2023-08-08T17:54:30.155Z,1.17
2023-08-08T17:56:56.590Z,1.19
2023-08-08T17:59:26.443Z,1.23
2023-08-08T18:01:54.936Z,1.31
2023-08-08T18:04:21.456Z,1.76
2023-08-08T18:06:50.842Z,2.10
2023-08-08T18:09:18.352Z,7.82
2023-08-08T18:11:44.874Z,10.84
2023-08-08T18:14:12.362Z,5.49
2023-08-08T18:16:46.188Z,2.64
2023-08-08T18:19:24.143Z,1.62
2023-08-08T18:21:50.591Z,1.49
2023-08-08T18:24:17.179Z,1.45
2023-08-08T18:26:43.713Z,1.39
2023-08-08T18:29:10.225Z,1.44
2023-08-08T18:31:36.744Z,1.60
2023-08-08T18:34:03.334Z,2.05
2023-08-08T18:36:29.978Z,1.48
2023-08-08T18:39:03.665Z,1.63
2023-08-08T18:41:30.312Z,1.20
2023-08-08T18:43:56.852Z,1.39
2023-08-08T18:46:23.440Z,1.55
2023-08-08T18:48:52.175Z,1.94
2023-08-08T18:51:18.810Z,1.75
2023-08-08T18:53:45.374Z,1.44
2023-08-08T18:56:11.868Z,1.48
2023-08-08T18:58:38.420Z,2.24
2023-08-08T19:01:04.870Z,6.66
2023-08-08T19:03:31.527Z,10.63
2023-08-08T19:05:58.235Z,4.66
2023-08-08T19:08:24.684Z,2.56
2023-08-08T19:10:51.191Z,1.76
2023-08-08T19:13:20.408Z,4.07
2023-08-08T19:15:46.960Z,2.44
2023-08-08T19:20:53.728Z,1.36
2023-08-08T19:23:20.990Z,1.46
2023-08-08T19:25:47.666Z,1.38
2023-08-08T19:28:14.147Z,1.33
2023-08-08T19:30:41.013Z,1.40
2023-08-08T19:33:07.582Z,1.32
2023-08-08T19:35:36.216Z,1.48
2023-08-08T19:38:02.964Z,1.63
2023-08-08T19:40:29.514Z,1.69
2023-08-08T19:42:56.035Z,1.89
2023-08-08T19:45:22.698Z,1.91
2023-08-08T19:47:49.307Z,1.53
2023-08-08T19:50:16.039Z,1.49
2023-08-08T19:52:42.540Z,1.54
2023-08-08T19:55:09.016Z,1.51
2023-08-08T19:57:38.307Z,1.49
2023-08-08T20:00:12.663Z,1.50
2023-08-08T20:02:39.294Z,1.48
2023-08-08T20:05:05.804Z,1.54
2023-08-08T20:07:32.308Z,2.88
2023-08-08T20:09:58.769Z,2.08
2023-08-08T20:12:28.171Z,2.76
2023-08-08T20:14:54.718Z,2.03
2023-08-08T20:17:21.253Z,1.95
2023-08-08T20:19:47.786Z,1.85
2023-08-08T20:25:04.690Z,1.57
2023-08-08T20:27:31.218Z,1.57
2023-08-08T20:29:57.666Z,1.76
2023-08-08T20:32:24.220Z,1.67
2023-08-08T20:34:50.770Z,1.68
2023-08-08T20:37:18.541Z,1.71
2023-08-08T20:39:45.059Z,1.72
2023-08-08T20:42:11.816Z,1.50
2023-08-08T20:44:47.214Z,1.58
2023-08-08T20:47:14.058Z,1.67
2023-08-08T20:49:40.613Z,1.48
2023-08-08T20:52:07.116Z,1.61
2023-08-08T20:54:34.885Z,1.67
2023-08-08T20:57:04.012Z,1.52
2023-08-08T20:59:30.756Z,1.61
2023-08-08T21:01:57.266Z,1.78
2023-08-08T21:04:23.740Z,1.62
2023-08-08T21:06:50.313Z,1.52
2023-08-08T21:09:16.949Z,1.60
2023-08-08T21:11:43.446Z,1.53
2023-08-08T21:14:11.615Z,1.82
2023-08-08T21:16:38.169Z,1.55
2023-08-08T21:19:04.838Z,1.52
2023-08-08T21:21:31.315Z,1.52
2023-08-08T21:23:59.047Z,1.43
2023-08-08T21:26:33.939Z,1.45
2023-08-08T21:29:04.900Z,1.56
2023-08-08T21:31:31.378Z,1.47
2023-08-08T21:33:57.904Z,1.44
2023-08-08T21:36:24.436Z,1.45
2023-08-08T21:38:50.913Z,1.39
2023-08-08T21:41:19.433Z,1.52
2023-08-08T21:43:45.998Z,1.41
2023-08-08T21:46:12.561Z,1.32
2023-08-08T21:51:21.384Z,1.40
2023-08-08T21:53:48.006Z,1.33
2023-08-08T21:56:14.585Z,1.45
2023-08-08T21:58:41.164Z,1.50
2023-08-08T22:01:08.108Z,1.91
2023-08-08T22:03:35.295Z,2.17
2023-08-08T22:06:01.805Z,1.45
2023-08-08T22:08:28.448Z,1.38
2023-08-08T22:10:55.035Z,1.40
2023-08-08T22:13:21.547Z,1.37
2023-08-08T22:15:48.746Z,1.45
2023-08-08T22:18:15.452Z,1.40
2023-08-08T22:20:43.107Z,1.62
2023-08-08T22:23:18.746Z,1.41
2023-08-08T22:25:47.246Z,1.71
2023-08-08T22:28:13.788Z,1.41
2023-08-08T22:30:40.423Z,1.50
2023-08-08T22:33:08.809Z,1.47
2023-08-08T22:35:35.283Z,1.33
2023-08-08T22:38:17.138Z,1.56
2023-08-08T22:40:45.597Z,1.39
2023-08-08T22:43:13.579Z,1.53
2023-08-08T22:45:40.123Z,1.52
2023-08-08T22:48:06.628Z,1.43
2023-08-08T22:50:33.200Z,1.62
2023-08-08T22:52:59.762Z,1.49
2023-08-08T22:55:26.263Z,1.51
2023-08-08T22:57:52.821Z,1.46
2023-08-08T23:00:22.468Z,1.38
2023-08-08T23:02:49.165Z,1.56
2023-08-08T23:05:15.791Z,1.51
2023-08-08T23:07:42.338Z,1.31
2023-08-08T23:10:08.925Z,1.41
2023-08-08T23:12:35.479Z,1.43
2023-08-08T23:15:01.942Z,1.41
2023-08-08T23:17:28.493Z,1.38
2023-08-08T23:19:58.090Z,1.35
2023-08-08T23:22:26.916Z,1.43
2023-08-08T23:24:53.505Z,1.61
2023-08-08T23:27:20.107Z,1.51
2023-08-08T23:29:46.795Z,1.46
2023-08-08T23:32:13.348Z,1.42
2023-08-08T23:34:39.872Z,1.29
2023-08-08T23:37:09.390Z,1.30
2023-08-08T23:39:40.830Z,1.42
2023-08-08T23:42:07.372Z,1.43
2023-08-08T23:44:33.915Z,1.51
2023-08-08T23:47:00.681Z,1.47
2023-08-08T23:49:27.388Z,1.61
2023-08-08T23:51:53.906Z,1.50
2023-08-08T23:54:20.443Z,1.50
2023-08-08T23:56:47.021Z,1.54
